createdAt,value
2022-11-17T00:00:18.798Z,7.80
2022-11-17T00:02:46.433Z,7.80
2022-11-17T00:05:14.094Z,7.70
2022-11-17T00:07:44.485Z,7.70
2022-11-17T00:10:12.234Z,7.80
2022-11-17T00:12:58.606Z,7.80
2022-11-17T00:15:25.492Z,7.60
2022-11-17T00:18:11.275Z,7.70
2022-11-17T00:20:57.915Z,7.70
2022-11-17T00:23:24.878Z,7.70
2022-11-17T00:25:51.715Z,7.70
2022-11-17T00:28:18.400Z,7.70
2022-11-17T00:31:03.943Z,7.70
2022-11-17T00:33:49.311Z,7.80
2022-11-17T00:36:16.226Z,7.90
2022-11-17T00:38:42.938Z,7.80
2022-11-17T00:41:09.638Z,7.70
2022-11-17T00:43:36.622Z,7.80
2022-11-17T00:46:03.528Z,7.90
2022-11-17T00:48:32.267Z,7.80
2022-11-17T00:51:03.898Z,7.90
2022-11-17T00:53:30.658Z,7.90
2022-11-17T00:55:57.319Z,8.00
2022-11-17T00:58:24.040Z,7.90
2022-11-17T01:00:50.835Z,8.00
2022-11-17T01:03:17.545Z,8.00
2022-11-17T01:05:44.219Z,7.90
2022-11-17T01:08:10.894Z,8.00
2022-11-17T01:10:37.604Z,8.00
2022-11-17T01:13:04.391Z,8.20
2022-11-17T01:15:31.138Z,8.20
2022-11-17T01:17:57.795Z,8.00
2022-11-17T01:20:24.497Z,7.90
2022-11-17T01:22:51.209Z,8.00
2022-11-17T01:25:17.913Z,8.00
2022-11-17T01:27:44.575Z,8.00
2022-11-17T01:30:12.452Z,8.00
2022-11-17T01:32:39.176Z,8.00
2022-11-17T01:35:06.395Z,8.00
2022-11-17T01:37:33.120Z,7.90
2022-11-17T01:39:59.808Z,7.80
2022-11-17T01:42:27.200Z,7.80
2022-11-17T01:45:02.524Z,7.80
2022-11-17T01:47:48.093Z,7.80
2022-11-17T01:50:30.188Z,7.90
2022-11-17T01:53:00.534Z,7.80
2022-11-17T01:55:38.731Z,7.80
2022-11-17T01:58:22.543Z,7.70
2022-11-17T02:00:49.568Z,7.90
2022-11-17T02:03:16.993Z,7.90
2022-11-17T02:05:55.686Z,7.90
2022-11-17T02:08:26.284Z,7.90
2022-11-17T02:10:53.865Z,8.00
2022-11-17T02:13:22.173Z,8.10
2022-11-17T02:15:49.029Z,8.10
2022-11-17T02:18:16.991Z,8.20
2022-11-17T02:21:07.279Z,8.20
2022-11-17T02:24:00.068Z,8.20
2022-11-17T02:26:54.366Z,8.20
2022-11-17T02:29:44.216Z,8.30
2022-11-17T02:32:24.374Z,8.40
2022-11-17T02:35:04.655Z,8.40
2022-11-17T02:37:53.683Z,8.30
2022-11-17T02:40:23.680Z,8.20
2022-11-17T02:43:20.168Z,8.20
2022-11-17T02:46:05.285Z,8.20
2022-11-17T02:48:36.897Z,8.20
2022-11-17T02:51:04.903Z,8.20
2022-11-17T02:53:32.326Z,8.10
2022-11-17T02:56:02.130Z,8.20
2022-11-17T02:58:29.017Z,8.20
2022-11-17T03:01:13.410Z,8.20
2022-11-17T03:03:55.216Z,8.20
2022-11-17T03:06:21.794Z,8.20
2022-11-17T03:09:29.527Z,8.00
2022-11-17T03:12:12.155Z,8.00
2022-11-17T03:14:50.726Z,8.00
2022-11-17T03:17:27.249Z,8.00
2022-11-17T03:20:17.603Z,8.10
2022-11-17T03:23:27.091Z,8.00
2022-11-17T03:25:55.826Z,8.10
2022-11-17T03:28:27.695Z,8.10
2022-11-17T03:30:55.878Z,8.20
2022-11-17T03:33:25.518Z,8.20
2022-11-17T03:36:00.155Z,8.20
2022-11-17T03:38:31.760Z,8.20
2022-11-17T03:41:03.112Z,8.10
2022-11-17T03:43:31.738Z,8.20
2022-11-17T03:46:05.755Z,8.20
2022-11-17T03:48:42.859Z,8.20
2022-11-17T03:51:30.690Z,8.10
2022-11-17T03:53:58.603Z,8.20
2022-11-17T03:56:31.250Z,8.10
2022-11-17T03:59:33.112Z,8.00
2022-11-17T04:02:00.067Z,7.90
2022-11-17T04:04:47.792Z,8.00
2022-11-17T04:07:14.554Z,7.90
2022-11-17T04:09:41.304Z,7.90
2022-11-17T04:12:26.943Z,8.00
2022-11-17T04:15:12.000Z,7.90
2022-11-17T04:17:40.344Z,7.80
2022-11-17T04:20:07.812Z,7.80
2022-11-17T04:22:34.490Z,7.80
2022-11-17T04:25:01.182Z,7.90
2022-11-17T04:27:46.416Z,7.90
2022-11-17T04:30:13.335Z,7.90
2022-11-17T04:32:40.005Z,7.90
2022-11-17T04:35:07.424Z,7.80
2022-11-17T04:37:34.383Z,7.80
2022-11-17T04:40:01.178Z,7.80
2022-11-17T04:42:28.814Z,7.70
2022-11-17T04:44:55.487Z,7.80
2022-11-17T04:47:22.162Z,7.80
2022-11-17T04:49:48.845Z,7.80
2022-11-17T04:52:15.530Z,7.70
2022-11-17T04:54:42.416Z,7.60
2022-11-17T04:57:09.138Z,7.80
2022-11-17T04:59:36.673Z,7.90
2022-11-17T05:02:06.107Z,7.90
2022-11-17T05:04:51.746Z,8.10
2022-11-17T05:07:18.479Z,8.10
2022-11-17T05:09:45.251Z,8.30
2022-11-17T05:12:30.382Z,8.40
2022-11-17T05:14:57.063Z,8.40
2022-11-17T05:17:23.780Z,8.50
2022-11-17T05:19:50.505Z,8.50
2022-11-17T05:22:38.508Z,8.60
2022-11-17T05:25:06.083Z,8.70
2022-11-17T05:27:36.365Z,8.90
2022-11-17T05:30:05.186Z,8.90
2022-11-17T05:32:31.949Z,8.90
2022-11-17T05:34:58.618Z,8.90
2022-11-17T05:37:25.342Z,8.90
2022-11-17T05:39:53.511Z,8.80
2022-11-17T05:42:20.329Z,8.70
2022-11-17T05:44:48.427Z,8.70
2022-11-17T05:47:15.332Z,8.60
2022-11-17T05:49:42.259Z,8.50
2022-11-17T05:52:09.044Z,8.60
2022-11-17T05:54:35.727Z,8.60
2022-11-17T05:57:06.920Z,8.70
2022-11-17T05:59:53.478Z,8.60
2022-11-17T06:02:37.314Z,8.60
2022-11-17T06:05:04.617Z,8.60
2022-11-17T06:07:31.497Z,8.40
2022-11-17T06:09:58.282Z,8.30
2022-11-17T06:12:25.011Z,8.30
2022-11-17T06:14:51.812Z,8.30
2022-11-17T06:17:38.922Z,8.40
2022-11-17T06:20:28.862Z,8.40
2022-11-17T06:23:00.142Z,8.40
2022-11-17T06:25:28.279Z,8.50
2022-11-17T06:27:58.315Z,8.60
2022-11-17T06:30:25.039Z,8.70
2022-11-17T06:32:53.152Z,8.70
2022-11-17T06:35:19.982Z,8.70
2022-11-17T06:37:46.683Z,8.70
2022-11-17T06:40:13.618Z,8.70
2022-11-17T06:42:59.454Z,8.70
2022-11-17T06:45:26.502Z,8.70
2022-11-17T06:47:53.878Z,8.80
2022-11-17T06:50:20.879Z,8.80
2022-11-17T06:52:47.582Z,8.80
2022-11-17T06:55:14.379Z,8.80
2022-11-17T06:57:41.091Z,8.80
2022-11-17T07:00:08.644Z,8.70
2022-11-17T07:02:36.633Z,8.70
2022-11-17T07:05:04.206Z,8.80
2022-11-17T07:07:31.158Z,8.70
2022-11-17T07:09:57.861Z,8.70
2022-11-17T07:12:24.590Z,8.70
2022-11-17T07:14:53.407Z,8.60
2022-11-17T07:17:20.128Z,8.70
2022-11-17T07:19:46.872Z,8.50
2022-11-17T07:22:13.596Z,8.50
2022-11-17T07:24:40.473Z,8.50
2022-11-17T07:27:07.259Z,8.50
2022-11-17T07:29:33.961Z,8.50
2022-11-17T07:32:00.809Z,8.50
2022-11-17T07:34:27.496Z,8.50
2022-11-17T07:36:54.196Z,8.50
2022-11-17T07:39:21.993Z,8.50
2022-11-17T07:41:48.857Z,8.50
2022-11-17T07:44:15.664Z,8.50
2022-11-17T07:46:42.419Z,8.60
2022-11-17T07:49:09.120Z,8.60
2022-11-17T07:51:35.797Z,8.50
2022-11-17T07:54:02.674Z,8.40
2022-11-17T07:56:29.471Z,8.40
2022-11-17T07:58:56.308Z,8.40
2022-11-17T08:01:23.113Z,8.40
2022-11-17T08:03:49.907Z,8.40
2022-11-17T08:06:16.988Z,8.40
2022-11-17T08:08:43.765Z,8.40
2022-11-17T08:11:11.959Z,8.30
2022-11-17T08:13:40.246Z,8.40
2022-11-17T08:16:08.453Z,8.30
2022-11-17T08:18:36.201Z,8.30
2022-11-17T08:21:05.709Z,8.20
2022-11-17T08:23:33.073Z,8.30
2022-11-17T08:26:01.311Z,8.20
2022-11-17T08:28:28.047Z,8.20
2022-11-17T08:30:54.808Z,8.20
2022-11-17T08:33:21.662Z,8.20
2022-11-17T08:35:48.475Z,8.20
2022-11-17T08:38:15.512Z,8.20
2022-11-17T08:40:42.622Z,8.10
2022-11-17T08:43:09.310Z,8.00
2022-11-17T08:45:36.001Z,8.00
2022-11-17T08:48:04.025Z,8.00
2022-11-17T08:50:30.828Z,8.00
2022-11-17T08:52:57.529Z,8.00
2022-11-17T08:55:26.216Z,8.00
2022-11-17T08:57:53.149Z,7.90
2022-11-17T09:00:21.731Z,8.00
2022-11-17T09:02:48.555Z,8.00
2022-11-17T09:05:15.376Z,8.00
2022-11-17T09:07:42.160Z,8.00
2022-11-17T09:10:10.955Z,8.20
2022-11-17T09:12:38.010Z,8.30
2022-11-17T09:15:05.572Z,8.30
2022-11-17T09:17:32.714Z,8.40
2022-11-17T09:19:59.474Z,8.40
2022-11-17T09:22:26.190Z,8.40
2022-11-17T09:24:52.871Z,8.40
2022-11-17T09:27:19.638Z,8.60
2022-11-17T09:29:46.341Z,8.80
2022-11-17T09:32:13.442Z,9.00
2022-11-17T09:34:40.157Z,9.00
2022-11-17T09:37:07.001Z,9.10
2022-11-17T09:39:33.687Z,9.20
2022-11-17T09:42:01.351Z,9.30
2022-11-17T09:44:44.035Z,9.30
2022-11-17T09:47:35.288Z,9.20
2022-11-17T09:50:25.332Z,9.10
2022-11-17T09:53:01.995Z,9.10
2022-11-17T09:55:42.326Z,9.20
2022-11-17T09:58:31.624Z,9.10
2022-11-17T10:01:01.171Z,9.20
2022-11-17T10:03:43.676Z,9.30
2022-11-17T10:06:16.932Z,9.40
2022-11-17T10:08:49.908Z,9.40
2022-11-17T10:11:33.690Z,9.30
2022-11-17T10:14:12.853Z,9.50
2022-11-17T10:16:42.897Z,9.70
2022-11-17T10:19:18.903Z,9.90
2022-11-17T10:21:48.560Z,10.00
2022-11-17T10:24:35.074Z,10.00
2022-11-17T10:27:28.608Z,10.10
2022-11-17T10:30:14.691Z,10.10
2022-11-17T10:32:49.978Z,10.10
2022-11-17T10:35:31.070Z,10.00
2022-11-17T10:38:00.717Z,10.10
2022-11-17T10:40:32.523Z,10.10
2022-11-17T10:43:04.864Z,10.20
2022-11-17T10:45:32.443Z,10.30
2022-11-17T10:48:36.958Z,10.20
2022-11-17T10:51:24.916Z,10.10
2022-11-17T10:54:17.408Z,10.10
2022-11-17T10:56:54.800Z,10.00
2022-11-17T10:59:31.663Z,10.10
2022-11-17T11:02:15.264Z,10.10
2022-11-17T11:04:41.982Z,10.10
2022-11-17T11:07:14.792Z,10.10
2022-11-17T11:10:03.094Z,10.10
2022-11-17T11:12:48.978Z,10.10
2022-11-17T11:15:20.154Z,10.20
2022-11-17T11:17:47.195Z,10.10
2022-11-17T11:20:20.735Z,10.20
2022-11-17T11:22:59.447Z,10.20
2022-11-17T11:25:42.586Z,10.40
2022-11-17T11:28:24.047Z,10.50
2022-11-17T11:31:14.563Z,10.70
2022-11-17T11:34:15.377Z,11.30
2022-11-17T11:36:51.725Z,11.90
2022-11-17T11:39:24.179Z,12.40
2022-11-17T11:42:15.018Z,12.60
2022-11-17T11:45:15.258Z,12.70
2022-11-17T11:48:21.789Z,12.60
2022-11-17T11:50:53.307Z,12.40
2022-11-17T11:53:32.243Z,12.00
2022-11-17T11:56:08.502Z,12.10
2022-11-17T11:58:40.504Z,12.10
2022-11-17T12:01:09.289Z,12.10
2022-11-17T12:03:39.095Z,11.80
2022-11-17T12:06:26.091Z,11.60
2022-11-17T12:09:26.432Z,11.50
2022-11-17T12:12:00.314Z,11.70
2022-11-17T12:14:29.789Z,11.80
2022-11-17T12:17:07.326Z,11.90
2022-11-17T12:19:54.020Z,12.00
2022-11-17T12:22:29.856Z,12.00
2022-11-17T12:25:05.066Z,11.90
2022-11-17T12:27:34.469Z,11.60
2022-11-17T12:30:14.110Z,11.50
2022-11-17T12:32:43.919Z,11.60
2022-11-17T12:35:30.320Z,11.60
2022-11-17T12:38:17.837Z,11.60
2022-11-17T12:40:48.202Z,11.70
2022-11-17T12:43:14.868Z,11.90
2022-11-17T12:46:22.654Z,12.20
2022-11-17T12:49:01.123Z,12.30
2022-11-17T12:51:54.586Z,12.10
2022-11-17T12:54:33.010Z,12.00
2022-11-17T12:57:14.572Z,12.10
2022-11-17T12:59:44.606Z,12.10
2022-11-17T13:02:30.134Z,12.00
2022-11-17T13:05:14.533Z,12.00
2022-11-17T13:07:41.600Z,11.90
2022-11-17T13:10:26.767Z,11.90
2022-11-17T13:13:22.170Z,11.90
2022-11-17T13:15:56.725Z,11.90
2022-11-17T13:18:33.054Z,11.90
2022-11-17T13:21:00.451Z,11.80
2022-11-17T13:23:30.379Z,11.80
2022-11-17T13:26:15.767Z,12.00
2022-11-17T13:28:43.714Z,12.00
2022-11-17T13:31:20.787Z,12.10
2022-11-17T13:34:06.340Z,12.40
2022-11-17T13:36:33.712Z,12.60
2022-11-17T13:39:01.023Z,12.70
2022-11-17T13:41:32.567Z,12.70
2022-11-17T13:43:59.792Z,12.70
2022-11-17T13:46:26.647Z,12.60
2022-11-17T13:48:54.920Z,12.50
2022-11-17T13:51:34.969Z,12.30
2022-11-17T13:54:15.470Z,12.50
2022-11-17T13:56:56.524Z,12.60
2022-11-17T13:59:30.995Z,12.80
2022-11-17T14:02:30.271Z,12.80
2022-11-17T14:05:25.296Z,12.90
2022-11-17T14:07:53.803Z,12.80
2022-11-17T14:10:20.440Z,12.60
2022-11-17T14:12:52.280Z,12.40
2022-11-17T14:15:24.705Z,12.30
2022-11-17T14:17:53.861Z,12.10
2022-11-17T14:20:32.138Z,11.90
2022-11-17T14:23:10.832Z,11.80
2022-11-17T14:25:50.450Z,11.80
2022-11-17T14:28:22.878Z,11.70
2022-11-17T14:30:51.395Z,11.60
2022-11-17T14:33:18.280Z,11.60
2022-11-17T14:35:46.203Z,11.50
2022-11-17T14:38:17.749Z,11.50
2022-11-17T14:40:44.704Z,11.50
2022-11-17T14:43:11.669Z,11.40
2022-11-17T14:45:38.460Z,11.20
2022-11-17T14:48:08.073Z,11.30
2022-11-17T14:50:34.818Z,11.20
2022-11-17T14:53:01.533Z,11.20
2022-11-17T14:55:28.229Z,11.20
2022-11-17T14:57:55.110Z,11.10
2022-11-17T15:00:22.130Z,11.10
2022-11-17T15:02:48.987Z,11.00
2022-11-17T15:05:15.811Z,11.00
2022-11-17T15:07:45.616Z,11.00
2022-11-17T15:10:12.379Z,10.90
2022-11-17T15:12:39.049Z,10.80
2022-11-17T15:15:08.879Z,10.70
2022-11-17T15:17:35.621Z,10.70
2022-11-17T15:20:02.540Z,10.60
2022-11-17T15:22:29.329Z,10.60
2022-11-17T15:24:56.056Z,10.60
2022-11-17T15:27:22.757Z,10.60
2022-11-17T15:29:49.847Z,10.70
2022-11-17T15:32:16.619Z,10.80
2022-11-17T15:34:43.308Z,10.70
2022-11-17T15:37:10.009Z,10.70
2022-11-17T15:39:36.964Z,10.50
2022-11-17T15:42:03.734Z,10.60
2022-11-17T15:44:30.484Z,10.50
2022-11-17T15:46:57.310Z,10.50
2022-11-17T15:49:24.059Z,10.50
2022-11-17T15:51:50.770Z,10.40
2022-11-17T15:54:20.716Z,10.30
2022-11-17T15:56:47.982Z,10.20
2022-11-17T15:59:16.016Z,10.30
2022-11-17T16:01:43.862Z,10.30
2022-11-17T16:04:13.819Z,10.30
2022-11-17T16:06:45.222Z,10.30
2022-11-17T16:09:12.964Z,10.30
2022-11-17T16:11:40.615Z,10.30
2022-11-17T16:14:07.622Z,10.20
2022-11-17T16:16:36.904Z,10.10
2022-11-17T16:19:04.612Z,10.00
2022-11-17T16:21:31.303Z,10.00
2022-11-17T16:24:00.611Z,10.10
2022-11-17T16:26:28.405Z,10.10
2022-11-17T16:29:00.313Z,10.00
2022-11-17T16:31:29.859Z,9.90
2022-11-17T16:33:59.075Z,9.80
2022-11-17T16:36:35.840Z,9.80
2022-11-17T16:39:06.037Z,9.70
2022-11-17T16:41:35.415Z,9.80
2022-11-17T16:44:05.998Z,9.90
2022-11-17T16:46:32.784Z,10.00
2022-11-17T16:49:05.559Z,10.00
2022-11-17T16:51:32.847Z,10.00
2022-11-17T16:54:01.985Z,10.10
2022-11-17T16:56:29.409Z,10.00
2022-11-17T16:58:56.591Z,10.00
2022-11-17T17:01:26.285Z,9.90
2022-11-17T17:04:05.070Z,9.90
2022-11-17T17:06:32.399Z,9.90
2022-11-17T17:09:02.846Z,10.00
2022-11-17T17:11:31.768Z,10.20
2022-11-17T17:14:01.165Z,10.30
2022-11-17T17:16:28.045Z,10.40
2022-11-17T17:18:59.949Z,10.40
2022-11-17T17:21:28.443Z,10.40
2022-11-17T17:23:55.464Z,10.30
2022-11-17T17:26:23.471Z,10.30
2022-11-17T17:28:53.806Z,10.30
2022-11-17T17:31:22.454Z,10.30
2022-11-17T17:33:50.749Z,10.40
2022-11-17T17:36:19.982Z,10.40
2022-11-17T17:38:51.797Z,10.50
2022-11-17T17:41:23.307Z,10.50
2022-11-17T17:43:56.752Z,10.50
2022-11-17T17:46:24.589Z,10.40
2022-11-17T17:48:51.682Z,10.40
2022-11-17T17:51:20.708Z,10.40
2022-11-17T17:53:50.606Z,10.30
2022-11-17T17:56:19.428Z,10.30
2022-11-17T17:58:48.681Z,10.30
2022-11-17T18:01:21.159Z,10.20
2022-11-17T18:03:50.024Z,10.20
2022-11-17T18:06:19.197Z,10.20
2022-11-17T18:08:48.449Z,10.10
2022-11-17T18:11:18.898Z,10.10
2022-11-17T18:13:48.318Z,10.00
2022-11-17T18:16:21.511Z,9.90
2022-11-17T18:18:48.492Z,9.90
2022-11-17T18:21:17.623Z,9.90
2022-11-17T18:23:44.487Z,9.90
2022-11-17T18:26:23.012Z,9.90
2022-11-17T18:29:15.105Z,9.80
2022-11-17T18:31:42.931Z,9.80
2022-11-17T18:34:21.155Z,9.70
2022-11-17T18:36:52.751Z,9.60
2022-11-17T18:39:21.034Z,9.50
2022-11-17T18:41:48.030Z,9.40
2022-11-17T18:44:16.997Z,9.30
2022-11-17T18:46:44.137Z,9.30
2022-11-17T18:49:11.201Z,9.10
2022-11-17T18:51:38.472Z,9.10
2022-11-17T18:54:05.262Z,9.00
2022-11-17T18:56:34.355Z,8.90
2022-11-17T18:59:02.042Z,8.90
2022-11-17T19:01:30.141Z,8.80
2022-11-17T19:04:00.669Z,8.80
2022-11-17T19:06:27.969Z,8.70
2022-11-17T19:08:55.337Z,8.70
2022-11-17T19:11:22.809Z,8.60
2022-11-17T19:13:49.888Z,8.60
2022-11-17T19:16:25.059Z,8.50
2022-11-17T19:18:54.713Z,8.30
2022-11-17T19:21:27.110Z,8.30
2022-11-17T19:23:55.303Z,8.30
2022-11-17T19:26:27.348Z,8.30
2022-11-17T19:29:16.650Z,8.30
2022-11-17T19:31:44.935Z,8.40
2022-11-17T19:34:11.958Z,8.40
2022-11-17T19:36:39.505Z,8.50
2022-11-17T19:39:06.262Z,8.60
2022-11-17T19:41:38.456Z,8.60
2022-11-17T19:44:07.273Z,8.50
2022-11-17T19:46:36.400Z,8.40
2022-11-17T19:49:05.802Z,8.40
2022-11-17T19:51:34.541Z,8.30
2022-11-17T19:54:03.314Z,8.30
2022-11-17T19:56:30.255Z,8.30
2022-11-17T19:58:57.492Z,8.20
2022-11-17T20:01:26.530Z,8.30
2022-11-17T20:03:54.251Z,8.50
2022-11-17T20:06:23.418Z,8.50
2022-11-17T20:08:50.218Z,8.60
2022-11-17T20:11:19.516Z,8.60
2022-11-17T20:13:46.473Z,8.60
2022-11-17T20:16:16.036Z,8.50
2022-11-17T20:18:44.108Z,8.40
2022-11-17T20:21:13.992Z,8.20
2022-11-17T20:23:41.193Z,8.40
2022-11-17T20:26:19.303Z,8.50
2022-11-17T20:28:47.769Z,8.60
2022-11-17T20:31:15.747Z,8.60
2022-11-17T20:33:43.482Z,8.70
2022-11-17T20:36:13.278Z,8.70
2022-11-17T20:38:40.241Z,8.70
2022-11-17T20:41:07.791Z,8.70
2022-11-17T20:43:35.623Z,8.70
2022-11-17T20:46:03.158Z,8.60
2022-11-17T20:48:31.482Z,8.70
2022-11-17T20:51:06.851Z,8.70
2022-11-17T20:53:34.415Z,8.70
2022-11-17T20:56:02.962Z,8.70
2022-11-17T20:58:30.781Z,8.70
2022-11-17T21:00:58.189Z,8.70
2022-11-17T21:03:26.681Z,8.60
2022-11-17T21:05:59.588Z,8.40
2022-11-17T21:08:30.055Z,8.40
2022-11-17T21:11:01.996Z,8.40
2022-11-17T21:13:31.271Z,8.30
2022-11-17T21:16:16.282Z,8.10
2022-11-17T21:18:47.656Z,8.00
2022-11-17T21:21:15.298Z,8.00
2022-11-17T21:23:43.974Z,8.00
2022-11-17T21:26:18.758Z,8.10
2022-11-17T21:28:46.657Z,8.20
2022-11-17T21:31:15.894Z,8.10
2022-11-17T21:33:43.878Z,8.10
2022-11-17T21:36:15.572Z,8.20
2022-11-17T21:38:42.472Z,8.00
2022-11-17T21:41:17.436Z,8.10
2022-11-17T21:43:46.093Z,8.10
2022-11-17T21:46:15.600Z,8.00
2022-11-17T21:48:42.502Z,7.80
2022-11-17T21:51:16.344Z,7.70
2022-11-17T21:53:43.513Z,7.70
2022-11-17T21:56:10.607Z,7.80
2022-11-17T21:58:37.366Z,7.80
2022-11-17T22:01:13.507Z,7.90
2022-11-17T22:03:41.794Z,7.90
2022-11-17T22:06:13.849Z,7.90
2022-11-17T22:08:42.236Z,7.90
2022-11-17T22:11:12.598Z,7.90
2022-11-17T22:13:40.308Z,7.90
2022-11-17T22:16:14.870Z,7.80
2022-11-17T22:18:41.869Z,7.70
2022-11-17T22:21:09.389Z,7.70
2022-11-17T22:23:36.136Z,7.70
2022-11-17T22:26:06.211Z,7.60
2022-11-17T22:28:33.022Z,7.60
2022-11-17T22:31:03.950Z,7.30
2022-11-17T22:33:30.681Z,7.30
2022-11-17T22:36:00.577Z,7.40
2022-11-17T22:38:29.463Z,7.30
2022-11-17T22:41:03.962Z,7.30
2022-11-17T22:43:31.126Z,7.20
2022-11-17T22:46:06.696Z,7.20
2022-11-17T22:48:36.255Z,7.10
2022-11-17T22:51:06.094Z,7.00
2022-11-17T22:53:33.813Z,6.80
2022-11-17T22:56:06.429Z,6.80
2022-11-17T22:58:34.040Z,6.90
2022-11-17T23:01:08.015Z,6.90
2022-11-17T23:03:34.909Z,6.90
2022-11-17T23:06:03.793Z,6.90
2022-11-17T23:08:31.199Z,6.80
2022-11-17T23:11:35.020Z,6.90
2022-11-17T23:13:49.257Z,7.00
2022-11-17T23:16:16.512Z,7.00
2022-11-17T23:18:43.414Z,7.10
2022-11-17T23:21:10.881Z,7.20
2022-11-17T23:23:39.522Z,7.10
2022-11-17T23:26:09.848Z,7.10
2022-11-17T23:28:40.317Z,7.00
2022-11-17T23:31:14.615Z,7.10
2022-11-17T23:33:44.581Z,7.20
2022-11-17T23:36:17.348Z,7.20
2022-11-17T23:38:46.827Z,7.20
2022-11-17T23:41:15.767Z,7.30
2022-11-17T23:43:43.229Z,7.50
2022-11-17T23:46:13.072Z,7.50
2022-11-17T23:48:40.561Z,7.60
2022-11-17T23:51:09.568Z,7.60
2022-11-17T23:53:37.050Z,7.70
2022-11-17T23:56:04.493Z,7.70
2022-11-17T23:58:31.267Z,7.60
